Flugplatz Bad Königshofen (UL)

Hier findest Du alle Informationen zum Flugplatz Bad Königshofen (UL).

Informationen für Piloten zum Flugplatz Bad Königshofen

Hier findest Du alle relevanten Informationen, die Du als Pilot benötigst, um Bad Königshofen anzufliegen.

Flugplatz: Bad Königshofen ICAO-Code: UL Flugplatz
Frequenz Turm: 134,990 Mhz GAFOR Gebiet: 47
Frequenz Ground: 134,990 Mhz Mogas: nein
Platzrunde: N 1700 ft Landegebühr: 0 €
Platzhöhe: - Sunrise: 04:10 Uhr UTC
Pisten: 07/25 - 700 m x 30 m, GRAS Sunset: 18:23 Uhr UTC

Mitglieder, die in Bad Königshofen fliegen

Flugwetter am Flugplatz Bad Königshofen

Die METAR Information stammen aus EDDE (85.70 km entfernt).

METAR Code:
2021/04/03 18:50
EDDE 031850Z 33008KT CAVOK 05/M03 Q1023 NOSIG

Flugschulen am Flugplatz Bad Königshofen

Am Flugplatz Bad Königshofen gibt es leider keine Flugschule.

Benachbarte Flugplätze und Flugschulen

Es gibt 18 weitere Flugplätze in einem Umkreis von 50 km um den Flugplatz Bad Königshofen.

Jetzt anmelden

Passwort vergessen

Umfrage Archiv

Seid Ihr aufgrund von Corona im Jahr 2020 mehr oder weniger geflogen als im Jahr zuvor?

weniger
53.8 %
gleich viel
29 %
mehr
17.2 %
Stimmen: 186 | Diskussion
Anzeige: Roland Aircraft
Statistik Alle Mitglieder

Aktuell sind 52 Besucher online, davon 2 Mitglieder und 50 Gäste.


Mitglieder online:
Tom971  Heli 

Anzeige: VFR Sprechfunk Simulator


Anzeige: Pocket FMS